sensor_id;sensor_type;location;lat;lon;timestamp;P1;durP1;ratioP1;P2;durP2;ratioP2
77204;SDS011;66188;46.626;18.866;2023-02-01T00:02:03;0.00;;;0.00;;
77204;SDS011;66188;46.626;18.866;2023-02-01T00:04:28;0.00;;;0.00;;
77204;SDS011;66188;46.626;18.866;2023-02-01T00:06:54;0.10;;;0.10;;
77204;SDS011;66188;46.626;18.866;2023-02-01T00:09:20;0.00;;;0.00;;
77204;SDS011;66188;46.626;18.866;2023-02-01T00:11:45;0.00;;;0.00;;
77204;SDS011;66188;46.626;18.866;2023-02-01T00:14:11;0.00;;;0.00;;
77204;SDS011;66188;46.626;18.866;2023-02-01T00:16:36;0.00;;;0.00;;
77204;SDS011;66188;46.626;18.866;2023-02-01T00:19:11;0.00;;;0.00;;
77204;SDS011;66188;46.626;18.866;2023-02-01T00:21:39;0.00;;;0.00;;
77204;SDS011;66188;46.626;18.866;2023-02-01T00:24:04;0.00;;;0.00;;
77204;SDS011;66188;46.626;18.866;2023-02-01T00:28:58;0.00;;;0.00;;
77204;SDS011;66188;46.626;18.866;2023-02-01T00:31:23;0.00;;;0.00;;
77204;SDS011;66188;46.626;18.866;2023-02-01T00:33:49;0.08;;;0.03;;
77204;SDS011;66188;46.626;18.866;2023-02-01T00:36:15;0.00;;;0.00;;
77204;SDS011;66188;46.626;18.866;2023-02-01T00:38:42;0.00;;;0.00;;
77204;SDS011;66188;46.626;18.866;2023-02-01T00:41:10;0.00;;;0.00;;
77204;SDS011;66188;46.626;18.866;2023-02-01T00:43:40;0.00;;;0.00;;
77204;SDS011;66188;46.626;18.866;2023-02-01T00:46:06;0.00;;;0.00;;
77204;SDS011;66188;46.626;18.866;2023-02-01T00:48:32;0.00;;;0.00;;
77204;SDS011;66188;46.626;18.866;2023-02-01T00:51:02;0.00;;;0.00;;
77204;SDS011;66188;46.626;18.866;2023-02-01T00:53:29;0.00;;;0.00;;
77204;SDS011;66188;46.626;18.866;2023-02-01T00:55:55;0.00;;;0.00;;
77204;SDS011;66188;46.626;18.866;2023-02-01T00:58:21;0.00;;;0.00;;
77204;SDS011;66188;46.626;18.866;2023-02-01T01:00:48;0.10;;;0.10;;
77204;SDS011;66188;46.626;18.866;2023-02-01T01:03:14;0.00;;;0.00;;
77204;SDS011;66188;46.626;18.866;2023-02-01T01:05:46;0.00;;;0.00;;
77204;SDS011;66188;46.626;18.866;2023-02-01T01:08:13;0.00;;;0.00;;
77204;SDS011;66188;46.626;18.866;2023-02-01T01:10:40;0.00;;;0.00;;
77204;SDS011;66188;46.626;18.866;2023-02-01T01:13:06;0.00;;;0.00;;
77204;SDS011;66188;46.626;18.866;2023-02-01T01:15:39;0.00;;;0.00;;
77204;SDS011;66188;46.626;18.866;2023-02-01T01:18:05;0.00;;;0.00;;
77204;SDS011;66188;46.626;18.866;2023-02-01T01:20:33;0.00;;;0.00;;
77204;SDS011;66188;46.626;18.866;2023-02-01T01:23:00;0.00;;;0.00;;
77204;SDS011;66188;46.626;18.866;2023-02-01T01:25:25;0.00;;;0.00;;
77204;SDS011;66188;46.626;18.866;2023-02-01T01:27:51;0.00;;;0.00;;
77204;SDS011;66188;46.626;18.866;2023-02-01T01:30:16;0.00;;;0.00;;
77204;SDS011;66188;46.626;18.866;2023-02-01T01:32:42;0.00;;;0.00;;
77204;SDS011;66188;46.626;18.866;2023-02-01T01:35:08;0.00;;;0.00;;
77204;SDS011;66188;46.626;18.866;2023-02-01T01:37:34;0.00;;;0.00;;
77204;SDS011;66188;46.626;18.866;2023-02-01T01:40:01;0.00;;;0.00;;
77204;SDS011;66188;46.626;18.866;2023-02-01T01:42:30;0.00;;;0.00;;
77204;SDS011;66188;46.626;18.866;2023-02-01T01:45:03;0.00;;;0.00;;
77204;SDS011;66188;46.626;18.866;2023-02-01T01:47:33;0.00;;;0.00;;
77204;SDS011;66188;46.626;18.866;2023-02-01T01:50:08;0.00;;;0.00;;
77204;SDS011;66188;46.626;18.866;2023-02-01T01:52:36;0.00;;;0.00;;
77204;SDS011;66188;46.626;18.866;2023-02-01T01:55:03;0.00;;;0.00;;
77204;SDS011;66188;46.626;18.866;2023-02-01T01:57:32;0.03;;;0.03;;
77204;SDS011;66188;46.626;18.866;2023-02-01T02:00:09;0.00;;;0.00;;
77204;SDS011;66188;46.626;18.866;2023-02-01T02:02:40;0.00;;;0.00;;
77204;SDS011;66188;46.626;18.866;2023-02-01T02:05:08;0.00;;;0.00;;
77204;SDS011;66188;46.626;18.866;2023-02-01T02:07:39;0.00;;;0.00;;
77204;SDS011;66188;46.626;18.866;2023-02-01T02:10:09;0.00;;;0.00;;
77204;SDS011;66188;46.626;18.866;2023-02-01T02:15:04;0.00;;;0.00;;
77204;SDS011;66188;46.626;18.866;2023-02-01T02:37:04;0.00;;;0.00;;
77204;SDS011;66188;46.626;18.866;2023-02-01T02:45:18;0.03;;;0.03;;
77204;SDS011;66188;46.626;18.866;2023-02-01T02:50:50;0.00;;;0.00;;
77204;SDS011;66188;46.626;18.866;2023-02-01T02:56:37;0.00;;;0.00;;
77204;SDS011;66188;46.626;18.866;2023-02-01T02:59:23;0.00;;;0.00;;
77204;SDS011;66188;46.626;18.866;2023-02-01T03:02:09;0.00;;;0.00;;
77204;SDS011;66188;46.626;18.866;2023-02-01T03:04:54;0.00;;;0.00;;
77204;SDS011;66188;46.626;18.866;2023-02-01T03:10:08;0.00;;;0.00;;
77204;SDS011;66188;46.626;18.866;2023-02-01T03:12:42;0.00;;;0.00;;
77204;SDS011;66188;46.626;18.866;2023-02-01T03:15:25;0.00;;;0.00;;
77204;SDS011;66188;46.626;18.866;2023-02-01T03:17:57;0.00;;;0.00;;
77204;SDS011;66188;46.626;18.866;2023-02-01T03:20:26;0.00;;;0.00;;
77204;SDS011;66188;46.626;18.866;2023-02-01T03:22:54;0.00;;;0.00;;
77204;SDS011;66188;46.626;18.866;2023-02-01T03:25:23;0.00;;;0.00;;
77204;SDS011;66188;46.626;18.866;2023-02-01T03:27:57;0.00;;;0.00;;
77204;SDS011;66188;46.626;18.866;2023-02-01T03:30:25;0.00;;;0.00;;
77204;SDS011;66188;46.626;18.866;2023-02-01T03:32:56;0.00;;;0.00;;
77204;SDS011;66188;46.626;18.866;2023-02-01T03:35:28;0.00;;;0.00;;
77204;SDS011;66188;46.626;18.866;2023-02-01T03:38:20;0.00;;;0.00;;
77204;SDS011;66188;46.626;18.866;2023-02-01T03:40:49;0.00;;;0.00;;
77204;SDS011;66188;46.626;18.866;2023-02-01T03:43:19;0.00;;;0.00;;
77204;SDS011;66188;46.626;18.866;2023-02-01T03:45:50;0.00;;;0.00;;
77204;SDS011;66188;46.626;18.866;2023-02-01T03:48:22;0.00;;;0.00;;
77204;SDS011;66188;46.626;18.866;2023-02-01T03:50:52;0.00;;;0.00;;
77204;SDS011;66188;46.626;18.866;2023-02-01T03:53:21;0.00;;;0.00;;
77204;SDS011;66188;46.626;18.866;2023-02-01T03:55:49;0.00;;;0.00;;
77204;SDS011;66188;46.626;18.866;2023-02-01T03:58:18;0.00;;;0.00;;
77204;SDS011;66188;46.626;18.866;2023-02-01T04:03:18;0.00;;;0.00;;
77204;SDS011;66188;46.626;18.866;2023-02-01T04:05:44;0.00;;;0.00;;
77204;SDS011;66188;46.626;18.866;2023-02-01T04:08:12;0.00;;;0.00;;
77204;SDS011;66188;46.626;18.866;2023-02-01T04:10:38;0.00;;;0.00;;
77204;SDS011;66188;46.626;18.866;2023-02-01T04:13:03;0.00;;;0.00;;
77204;SDS011;66188;46.626;18.866;2023-02-01T04:15:29;0.00;;;0.00;;
77204;SDS011;66188;46.626;18.866;2023-02-01T04:17:54;0.00;;;0.00;;
77204;SDS011;66188;46.626;18.866;2023-02-01T04:20:20;0.00;;;0.00;;
77204;SDS011;66188;46.626;18.866;2023-02-01T04:22:45;0.00;;;0.00;;
77204;SDS011;66188;46.626;18.866;2023-02-01T04:25:11;0.10;;;0.10;;
77204;SDS011;66188;46.626;18.866;2023-02-01T04:27:36;0.00;;;0.00;;
77204;SDS011;66188;46.626;18.866;2023-02-01T04:30:05;0.00;;;0.00;;
77204;SDS011;66188;46.626;18.866;2023-02-01T04:32:34;0.00;;;0.00;;
77204;SDS011;66188;46.626;18.866;2023-02-01T04:35:00;0.00;;;0.00;;
77204;SDS011;66188;46.626;18.866;2023-02-01T04:37:26;0.00;;;0.00;;
77204;SDS011;66188;46.626;18.866;2023-02-01T04:39:51;0.05;;;0.05;;
77204;SDS011;66188;46.626;18.866;2023-02-01T04:42:17;0.00;;;0.00;;
77204;SDS011;66188;46.626;18.866;2023-02-01T04:44:42;0.00;;;0.00;;
77204;SDS011;66188;46.626;18.866;2023-02-01T04:47:08;0.00;;;0.00;;
77204;SDS011;66188;46.626;18.866;2023-02-01T04:49:34;0.00;;;0.00;;
77204;SDS011;66188;46.626;18.866;2023-02-01T04:52:00;0.00;;;0.00;;
77204;SDS011;66188;46.626;18.866;2023-02-01T04:54:25;0.00;;;0.00;;
77204;SDS011;66188;46.626;18.866;2023-02-01T04:56:51;0.00;;;0.00;;
77204;SDS011;66188;46.626;18.866;2023-02-01T04:59:16;0.00;;;0.00;;
77204;SDS011;66188;46.626;18.866;2023-02-01T05:01:42;0.00;;;0.00;;
77204;SDS011;66188;46.626;18.866;2023-02-01T05:04:08;0.00;;;0.00;;
77204;SDS011;66188;46.626;18.866;2023-02-01T05:06:33;0.00;;;0.00;;
77204;SDS011;66188;46.626;18.866;2023-02-01T05:08:59;0.00;;;0.00;;
77204;SDS011;66188;46.626;18.866;2023-02-01T05:11:24;0.00;;;0.00;;
77204;SDS011;66188;46.626;18.866;2023-02-01T05:14:08;0.00;;;0.00;;
77204;SDS011;66188;46.626;18.866;2023-02-01T05:16:34;0.00;;;0.00;;
77204;SDS011;66188;46.626;18.866;2023-02-01T05:19:00;0.00;;;0.00;;
77204;SDS011;66188;46.626;18.866;2023-02-01T05:21:25;0.00;;;0.00;;
77204;SDS011;66188;46.626;18.866;2023-02-01T05:23:51;0.00;;;0.00;;
77204;SDS011;66188;46.626;18.866;2023-02-01T05:26:35;0.00;;;0.00;;
77204;SDS011;66188;46.626;18.866;2023-02-01T05:31:30;0.00;;;0.00;;
77204;SDS011;66188;46.626;18.866;2023-02-01T05:33:56;0.00;;;0.00;;
77204;SDS011;66188;46.626;18.866;2023-02-01T05:36:21;0.00;;;0.00;;
77204;SDS011;66188;46.626;18.866;2023-02-01T05:38:50;0.00;;;0.00;;
77204;SDS011;66188;46.626;18.866;2023-02-01T05:41:16;0.00;;;0.00;;
77204;SDS011;66188;46.626;18.866;2023-02-01T05:43:42;0.00;;;0.00;;
77204;SDS011;66188;46.626;18.866;2023-02-01T05:46:13;0.00;;;0.00;;
77204;SDS011;66188;46.626;18.866;2023-02-01T05:48:39;0.00;;;0.00;;
77204;SDS011;66188;46.626;18.866;2023-02-01T05:51:06;0.00;;;0.00;;
77204;SDS011;66188;46.626;18.866;2023-02-01T05:53:32;0.00;;;0.00;;
77204;SDS011;66188;46.626;18.866;2023-02-01T05:55:57;0.00;;;0.00;;
77204;SDS011;66188;46.626;18.866;2023-02-01T05:58:23;0.00;;;0.00;;
77204;SDS011;66188;46.626;18.866;2023-02-01T06:00:48;0.00;;;0.00;;
77204;SDS011;66188;46.626;18.866;2023-02-01T06:03:14;0.00;;;0.00;;
77204;SDS011;66188;46.626;18.866;2023-02-01T06:05:39;0.00;;;0.00;;
77204;SDS011;66188;46.626;18.866;2023-02-01T06:08:08;0.00;;;0.00;;
77204;SDS011;66188;46.626;18.866;2023-02-01T06:10:34;0.00;;;0.00;;
77204;SDS011;66188;46.626;18.866;2023-02-01T06:13:02;0.00;;;0.00;;
77204;SDS011;66188;46.626;18.866;2023-02-01T06:15:29;0.00;;;0.00;;
77204;SDS011;66188;46.626;18.866;2023-02-01T06:17:55;0.00;;;0.00;;
77204;SDS011;66188;46.626;18.866;2023-02-01T06:20:21;0.00;;;0.00;;
77204;SDS011;66188;46.626;18.866;2023-02-01T06:22:47;0.00;;;0.00;;
77204;SDS011;66188;46.626;18.866;2023-02-01T06:25:15;0.00;;;0.00;;
77204;SDS011;66188;46.626;18.866;2023-02-01T06:27:42;0.03;;;0.03;;
77204;SDS011;66188;46.626;18.866;2023-02-01T06:30:10;0.00;;;0.00;;
77204;SDS011;66188;46.626;18.866;2023-02-01T06:32:38;0.00;;;0.00;;
77204;SDS011;66188;46.626;18.866;2023-02-01T06:35:05;0.00;;;0.00;;
77204;SDS011;66188;46.626;18.866;2023-02-01T06:37:33;0.00;;;0.00;;
77204;SDS011;66188;46.626;18.866;2023-02-01T06:39:59;0.00;;;0.00;;
77204;SDS011;66188;46.626;18.866;2023-02-01T06:42:25;0.00;;;0.00;;
77204;SDS011;66188;46.626;18.866;2023-02-01T06:44:50;0.00;;;0.00;;
77204;SDS011;66188;46.626;18.866;2023-02-01T06:47:16;0.00;;;0.00;;
77204;SDS011;66188;46.626;18.866;2023-02-01T06:49:41;0.35;;;0.15;;
77204;SDS011;66188;46.626;18.866;2023-02-01T06:52:07;0.03;;;0.03;;
77204;SDS011;66188;46.626;18.866;2023-02-01T06:54:33;0.08;;;0.00;;
77204;SDS011;66188;46.626;18.866;2023-02-01T06:56:59;0.00;;;0.00;;
77204;SDS011;66188;46.626;18.866;2023-02-01T06:59:27;0.00;;;0.00;;
77204;SDS011;66188;46.626;18.866;2023-02-01T07:01:52;0.00;;;0.00;;
77204;SDS011;66188;46.626;18.866;2023-02-01T07:04:18;0.00;;;0.00;;
77204;SDS011;66188;46.626;18.866;2023-02-01T07:06:43;0.00;;;0.00;;
77204;SDS011;66188;46.626;18.866;2023-02-01T07:09:09;0.00;;;0.00;;
77204;SDS011;66188;46.626;18.866;2023-02-01T07:11:38;0.00;;;0.00;;
77204;SDS011;66188;46.626;18.866;2023-02-01T07:14:08;0.00;;;0.00;;
77204;SDS011;66188;46.626;18.866;2023-02-01T07:16:34;0.00;;;0.00;;
77204;SDS011;66188;46.626;18.866;2023-02-01T07:18:59;0.00;;;0.00;;
77204;SDS011;66188;46.626;18.866;2023-02-01T07:21:25;0.00;;;0.00;;
77204;SDS011;66188;46.626;18.866;2023-02-01T07:23:56;0.00;;;0.00;;
77204;SDS011;66188;46.626;18.866;2023-02-01T07:26:23;0.10;;;0.00;;
77204;SDS011;66188;46.626;18.866;2023-02-01T07:28:49;0.00;;;0.00;;
77204;SDS011;66188;46.626;18.866;2023-02-01T07:31:15;0.00;;;0.00;;
77204;SDS011;66188;46.626;18.866;2023-02-01T07:33:47;0.00;;;0.00;;
77204;SDS011;66188;46.626;18.866;2023-02-01T07:36:16;0.00;;;0.00;;
77204;SDS011;66188;46.626;18.866;2023-02-01T07:38:42;0.00;;;0.00;;
77204;SDS011;66188;46.626;18.866;2023-02-01T07:41:08;0.00;;;0.00;;
77204;SDS011;66188;46.626;18.866;2023-02-01T07:43:35;0.00;;;0.00;;
77204;SDS011;66188;46.626;18.866;2023-02-01T07:46:01;0.00;;;0.00;;
77204;SDS011;66188;46.626;18.866;2023-02-01T07:48:29;0.00;;;0.00;;
77204;SDS011;66188;46.626;18.866;2023-02-01T07:50:59;0.00;;;0.00;;
77204;SDS011;66188;46.626;18.866;2023-02-01T07:53:29;0.00;;;0.00;;
77204;SDS011;66188;46.626;18.866;2023-02-01T07:55:56;0.00;;;0.00;;
77204;SDS011;66188;46.626;18.866;2023-02-01T07:58:22;0.00;;;0.00;;
77204;SDS011;66188;46.626;18.866;2023-02-01T08:00:48;0.00;;;0.00;;
77204;SDS011;66188;46.626;18.866;2023-02-01T08:03:32;0.00;;;0.00;;
77204;SDS011;66188;46.626;18.866;2023-02-01T08:05:58;0.00;;;0.00;;
77204;SDS011;66188;46.626;18.866;2023-02-01T08:08:23;0.00;;;0.00;;
77204;SDS011;66188;46.626;18.866;2023-02-01T08:10:49;0.00;;;0.00;;
77204;SDS011;66188;46.626;18.866;2023-02-01T08:13:15;0.00;;;0.00;;
77204;SDS011;66188;46.626;18.866;2023-02-01T08:15:40;0.00;;;0.00;;
77204;SDS011;66188;46.626;18.866;2023-02-01T08:18:06;0.00;;;0.00;;
77204;SDS011;66188;46.626;18.866;2023-02-01T08:20:31;0.00;;;0.00;;
77204;SDS011;66188;46.626;18.866;2023-02-01T08:22:59;0.00;;;0.00;;
77204;SDS011;66188;46.626;18.866;2023-02-01T08:25:25;0.00;;;0.00;;
77204;SDS011;66188;46.626;18.866;2023-02-01T08:27:51;0.00;;;0.00;;
77204;SDS011;66188;46.626;18.866;2023-02-01T08:30:16;0.00;;;0.00;;
77204;SDS011;66188;46.626;18.866;2023-02-01T08:32:42;0.00;;;0.00;;
77204;SDS011;66188;46.626;18.866;2023-02-01T08:35:08;0.00;;;0.00;;
77204;SDS011;66188;46.626;18.866;2023-02-01T08:37:34;0.00;;;0.00;;
77204;SDS011;66188;46.626;18.866;2023-02-01T08:40:00;0.00;;;0.00;;
77204;SDS011;66188;46.626;18.866;2023-02-01T08:42:26;0.00;;;0.00;;
77204;SDS011;66188;46.626;18.866;2023-02-01T08:45:10;0.00;;;0.00;;
77204;SDS011;66188;46.626;18.866;2023-02-01T08:47:35;0.00;;;0.00;;
77204;SDS011;66188;46.626;18.866;2023-02-01T08:50:01;0.00;;;0.00;;
77204;SDS011;66188;46.626;18.866;2023-02-01T08:52:27;0.00;;;0.00;;
77204;SDS011;66188;46.626;18.866;2023-02-01T08:54:52;0.00;;;0.00;;
77204;SDS011;66188;46.626;18.866;2023-02-01T08:57:18;0.00;;;0.00;;
77204;SDS011;66188;46.626;18.866;2023-02-01T08:59:46;0.00;;;0.00;;
77204;SDS011;66188;46.626;18.866;2023-02-01T09:02:13;0.00;;;0.00;;
77204;SDS011;66188;46.626;18.866;2023-02-01T09:04:40;0.00;;;0.00;;
77204;SDS011;66188;46.626;18.866;2023-02-01T09:07:06;0.00;;;0.00;;
77204;SDS011;66188;46.626;18.866;2023-02-01T09:09:32;0.00;;;0.00;;
77204;SDS011;66188;46.626;18.866;2023-02-01T09:11:57;0.00;;;0.00;;
77204;SDS011;66188;46.626;18.866;2023-02-01T09:14:23;0.00;;;0.00;;
77204;SDS011;66188;46.626;18.866;2023-02-01T09:16:51;0.00;;;0.00;;
77204;SDS011;66188;46.626;18.866;2023-02-01T09:19:17;0.00;;;0.00;;
77204;SDS011;66188;46.626;18.866;2023-02-01T09:21:46;0.00;;;0.00;;
77204;SDS011;66188;46.626;18.866;2023-02-01T09:24:12;0.00;;;0.00;;
77204;SDS011;66188;46.626;18.866;2023-02-01T09:26:38;0.00;;;0.00;;
77204;SDS011;66188;46.626;18.866;2023-02-01T09:29:07;0.00;;;0.00;;
77204;SDS011;66188;46.626;18.866;2023-02-01T09:31:36;0.00;;;0.00;;
77204;SDS011;66188;46.626;18.866;2023-02-01T09:34:02;0.00;;;0.00;;
77204;SDS011;66188;46.626;18.866;2023-02-01T09:36:28;0.00;;;0.00;;
77204;SDS011;66188;46.626;18.866;2023-02-01T09:38:53;0.00;;;0.00;;
77204;SDS011;66188;46.626;18.866;2023-02-01T09:46:57;0.00;;;0.00;;
77204;SDS011;66188;46.626;18.866;2023-02-01T09:49:29;0.00;;;0.00;;
77204;SDS011;66188;46.626;18.866;2023-02-01T09:51:57;0.00;;;0.00;;
77204;SDS011;66188;46.626;18.866;2023-02-01T09:54:26;0.00;;;0.00;;
77204;SDS011;66188;46.626;18.866;2023-02-01T09:57:26;0.00;;;0.00;;
77204;SDS011;66188;46.626;18.866;2023-02-01T10:00:06;0.00;;;0.00;;
77204;SDS011;66188;46.626;18.866;2023-02-01T10:02:48;0.00;;;0.00;;
77204;SDS011;66188;46.626;18.866;2023-02-01T10:05:16;0.00;;;0.00;;
77204;SDS011;66188;46.626;18.866;2023-02-01T10:07:57;0.00;;;0.00;;
77204;SDS011;66188;46.626;18.866;2023-02-01T10:10:41;0.00;;;0.00;;
77204;SDS011;66188;46.626;18.866;2023-02-01T10:26:42;0.00;;;0.00;;
77204;SDS011;66188;46.626;18.866;2023-02-01T10:29:14;0.00;;;0.00;;
77204;SDS011;66188;46.626;18.866;2023-02-01T10:31:45;0.00;;;0.00;;
77204;SDS011;66188;46.626;18.866;2023-02-01T10:34:21;0.00;;;0.00;;
77204;SDS011;66188;46.626;18.866;2023-02-01T10:39:44;0.00;;;0.00;;
77204;SDS011;66188;46.626;18.866;2023-02-01T10:42:15;0.00;;;0.00;;
77204;SDS011;66188;46.626;18.866;2023-02-01T10:44:44;0.00;;;0.00;;
77204;SDS011;66188;46.626;18.866;2023-02-01T10:47:13;0.00;;;0.00;;
77204;SDS011;66188;46.626;18.866;2023-02-01T10:49:54;0.00;;;0.00;;
77204;SDS011;66188;46.626;18.866;2023-02-01T10:52:42;0.00;;;0.00;;
77204;SDS011;66188;46.626;18.866;2023-02-01T10:57:55;0.00;;;0.00;;
77204;SDS011;66188;46.626;18.866;2023-02-01T11:00:34;0.00;;;0.00;;
77204;SDS011;66188;46.626;18.866;2023-02-01T11:06:02;0.00;;;0.00;;
77204;SDS011;66188;46.626;18.866;2023-02-01T11:08:41;0.00;;;0.00;;
77204;SDS011;66188;46.626;18.866;2023-02-01T11:11:27;0.00;;;0.00;;
77204;SDS011;66188;46.626;18.866;2023-02-01T11:13:57;0.00;;;0.00;;
77204;SDS011;66188;46.626;18.866;2023-02-01T11:16:33;0.00;;;0.00;;
77204;SDS011;66188;46.626;18.866;2023-02-01T11:19:03;0.00;;;0.00;;
77204;SDS011;66188;46.626;18.866;2023-02-01T11:21:30;0.00;;;0.00;;
77204;SDS011;66188;46.626;18.866;2023-02-01T11:24:00;0.00;;;0.00;;
77204;SDS011;66188;46.626;18.866;2023-02-01T11:26:28;0.00;;;0.00;;
77204;SDS011;66188;46.626;18.866;2023-02-01T11:29:13;0.00;;;0.00;;
77204;SDS011;66188;46.626;18.866;2023-02-01T11:31:42;0.00;;;0.00;;
77204;SDS011;66188;46.626;18.866;2023-02-01T11:36:38;0.00;;;0.00;;
77204;SDS011;66188;46.626;18.866;2023-02-01T11:42:01;0.00;;;0.00;;
77204;SDS011;66188;46.626;18.866;2023-02-01T11:44:31;0.00;;;0.00;;
77204;SDS011;66188;46.626;18.866;2023-02-01T11:47:16;0.00;;;0.00;;
77204;SDS011;66188;46.626;18.866;2023-02-01T11:49:55;0.00;;;0.00;;
77204;SDS011;66188;46.626;18.866;2023-02-01T12:09:30;0.00;;;0.00;;
77204;SDS011;66188;46.626;18.866;2023-02-01T12:14:49;0.00;;;0.00;;
77204;SDS011;66188;46.626;18.866;2023-02-01T12:31:25;0.00;;;0.00;;
77204;SDS011;66188;46.626;18.866;2023-02-01T12:44:27;0.00;;;0.00;;
77204;SDS011;66188;46.626;18.866;2023-02-01T12:46:59;0.00;;;0.00;;
77204;SDS011;66188;46.626;18.866;2023-02-01T12:52:10;0.00;;;0.00;;
77204;SDS011;66188;46.626;18.866;2023-02-01T12:57:13;0.00;;;0.00;;
77204;SDS011;66188;46.626;18.866;2023-02-01T13:05:30;0.00;;;0.00;;
77204;SDS011;66188;46.626;18.866;2023-02-01T13:08:10;0.00;;;0.00;;
77204;SDS011;66188;46.626;18.866;2023-02-01T13:15:46;0.00;;;0.00;;
77204;SDS011;66188;46.626;18.866;2023-02-01T13:18:20;0.00;;;0.00;;
77204;SDS011;66188;46.626;18.866;2023-02-01T13:20:53;0.00;;;0.00;;
77204;SDS011;66188;46.626;18.866;2023-02-01T13:23:45;0.00;;;0.00;;
77204;SDS011;66188;46.626;18.866;2023-02-01T13:26:16;0.00;;;0.00;;
77204;SDS011;66188;46.626;18.866;2023-02-01T13:28:58;0.00;;;0.00;;
77204;SDS011;66188;46.626;18.866;2023-02-01T13:39:43;0.00;;;0.00;;
77204;SDS011;66188;46.626;18.866;2023-02-01T13:42:29;0.00;;;0.00;;
77204;SDS011;66188;46.626;18.866;2023-02-01T13:45:03;0.00;;;0.00;;
77204;SDS011;66188;46.626;18.866;2023-02-01T13:47:39;0.00;;;0.00;;
77204;SDS011;66188;46.626;18.866;2023-02-01T13:56:11;0.03;;;0.00;;
77204;SDS011;66188;46.626;18.866;2023-02-01T14:09:35;0.00;;;0.00;;
77204;SDS011;66188;46.626;18.866;2023-02-01T14:11:57;0.00;;;0.00;;
77204;SDS011;66188;46.626;18.866;2023-02-01T14:19:24;0.00;;;0.00;;
77204;SDS011;66188;46.626;18.866;2023-02-01T14:21:56;0.00;;;0.00;;
77204;SDS011;66188;46.626;18.866;2023-02-01T14:24:36;0.00;;;0.00;;
77204;SDS011;66188;46.626;18.866;2023-02-01T14:27:23;0.00;;;0.00;;
77204;SDS011;66188;46.626;18.866;2023-02-01T14:29:56;0.00;;;0.00;;
77204;SDS011;66188;46.626;18.866;2023-02-01T14:32:30;0.00;;;0.00;;
77204;SDS011;66188;46.626;18.866;2023-02-01T14:35:00;0.00;;;0.00;;
77204;SDS011;66188;46.626;18.866;2023-02-01T14:37:31;0.00;;;0.00;;
77204;SDS011;66188;46.626;18.866;2023-02-01T14:40:04;0.00;;;0.00;;
77204;SDS011;66188;46.626;18.866;2023-02-01T14:42:53;0.00;;;0.00;;
77204;SDS011;66188;46.626;18.866;2023-02-01T14:47:50;0.00;;;0.00;;
77204;SDS011;66188;46.626;18.866;2023-02-01T14:55:41;0.00;;;0.00;;
77204;SDS011;66188;46.626;18.866;2023-02-01T15:06:36;0.00;;;0.00;;
77204;SDS011;66188;46.626;18.866;2023-02-01T15:09:20;0.00;;;0.00;;
77204;SDS011;66188;46.626;18.866;2023-02-01T15:11:54;0.00;;;0.00;;
77204;SDS011;66188;46.626;18.866;2023-02-01T15:17:36;0.00;;;0.00;;
77204;SDS011;66188;46.626;18.866;2023-02-01T15:20:15;0.00;;;0.00;;
77204;SDS011;66188;46.626;18.866;2023-02-01T15:22:51;0.00;;;0.00;;
77204;SDS011;66188;46.626;18.866;2023-02-01T15:27:45;0.00;;;0.00;;
77204;SDS011;66188;46.626;18.866;2023-02-01T15:30:18;0.00;;;0.00;;
77204;SDS011;66188;46.626;18.866;2023-02-01T15:32:46;0.00;;;0.00;;
77204;SDS011;66188;46.626;18.866;2023-02-01T15:43:44;0.00;;;0.00;;
77204;SDS011;66188;46.626;18.866;2023-02-01T15:46:38;0.00;;;0.00;;
77204;SDS011;66188;46.626;18.866;2023-02-01T15:51:57;0.00;;;0.00;;
77204;SDS011;66188;46.626;18.866;2023-02-01T15:54:26;0.00;;;0.00;;
77204;SDS011;66188;46.626;18.866;2023-02-01T15:56:56;0.00;;;0.00;;
77204;SDS011;66188;46.626;18.866;2023-02-01T15:59:29;1.23;;;0.88;;
77204;SDS011;66188;46.626;18.866;2023-02-01T16:02:00;2.25;;;1.20;;
77204;SDS011;66188;46.626;18.866;2023-02-01T16:04:28;0.68;;;0.57;;
77204;SDS011;66188;46.626;18.866;2023-02-01T16:07:04;1.02;;;0.60;;
77204;SDS011;66188;46.626;18.866;2023-02-01T16:09:53;0.35;;;0.32;;
77204;SDS011;66188;46.626;18.866;2023-02-01T16:15:11;0.08;;;0.05;;
77204;SDS011;66188;46.626;18.866;2023-02-01T16:17:37;0.10;;;0.00;;
77204;SDS011;66188;46.626;18.866;2023-02-01T16:20:02;0.08;;;0.00;;
77204;SDS011;66188;46.626;18.866;2023-02-01T16:22:29;0.00;;;0.00;;
77204;SDS011;66188;46.626;18.866;2023-02-01T16:24:54;1.35;;;0.20;;
77204;SDS011;66188;46.626;18.866;2023-02-01T16:27:20;0.00;;;0.00;;
77204;SDS011;66188;46.626;18.866;2023-02-01T16:29:47;0.00;;;0.00;;
77204;SDS011;66188;46.626;18.866;2023-02-01T16:32:15;0.13;;;0.10;;
77204;SDS011;66188;46.626;18.866;2023-02-01T16:34:44;0.00;;;0.00;;
77204;SDS011;66188;46.626;18.866;2023-02-01T16:37:13;0.00;;;0.00;;
77204;SDS011;66188;46.626;18.866;2023-02-01T16:39:41;0.25;;;0.20;;
77204;SDS011;66188;46.626;18.866;2023-02-01T16:42:11;0.00;;;0.00;;
77204;SDS011;66188;46.626;18.866;2023-02-01T16:44:38;0.00;;;0.00;;
77204;SDS011;66188;46.626;18.866;2023-02-01T16:47:05;0.00;;;0.00;;
77204;SDS011;66188;46.626;18.866;2023-02-01T16:49:38;0.00;;;0.00;;
77204;SDS011;66188;46.626;18.866;2023-02-01T16:52:08;0.00;;;0.00;;
77204;SDS011;66188;46.626;18.866;2023-02-01T16:54:44;0.00;;;0.00;;
77204;SDS011;66188;46.626;18.866;2023-02-01T16:57:14;0.10;;;0.10;;
77204;SDS011;66188;46.626;18.866;2023-02-01T16:59:41;0.10;;;0.10;;
77204;SDS011;66188;46.626;18.866;2023-02-01T17:02:14;0.00;;;0.00;;
77204;SDS011;66188;46.626;18.866;2023-02-01T17:04:45;0.10;;;0.00;;
77204;SDS011;66188;46.626;18.866;2023-02-01T17:07:17;0.00;;;0.00;;
77204;SDS011;66188;46.626;18.866;2023-02-01T17:09:43;0.00;;;0.00;;
77204;SDS011;66188;46.626;18.866;2023-02-01T17:12:20;0.00;;;0.00;;
77204;SDS011;66188;46.626;18.866;2023-02-01T17:14:48;0.05;;;0.05;;
77204;SDS011;66188;46.626;18.866;2023-02-01T17:17:15;0.00;;;0.00;;
77204;SDS011;66188;46.626;18.866;2023-02-01T17:19:41;0.00;;;0.00;;
77204;SDS011;66188;46.626;18.866;2023-02-01T17:22:09;0.08;;;0.00;;
77204;SDS011;66188;46.626;18.866;2023-02-01T17:24:34;0.10;;;0.10;;
77204;SDS011;66188;46.626;18.866;2023-02-01T17:27:00;0.00;;;0.00;;
77204;SDS011;66188;46.626;18.866;2023-02-01T17:29:25;0.00;;;0.00;;
77204;SDS011;66188;46.626;18.866;2023-02-01T17:31:52;0.00;;;0.00;;
77204;SDS011;66188;46.626;18.866;2023-02-01T17:34:19;0.00;;;0.00;;
77204;SDS011;66188;46.626;18.866;2023-02-01T17:36:47;0.00;;;0.00;;
77204;SDS011;66188;46.626;18.866;2023-02-01T17:39:13;0.00;;;0.00;;
77204;SDS011;66188;46.626;18.866;2023-02-01T17:41:59;0.00;;;0.00;;
77204;SDS011;66188;46.626;18.866;2023-02-01T17:44:25;0.10;;;0.10;;
77204;SDS011;66188;46.626;18.866;2023-02-01T17:46:51;0.00;;;0.00;;
77204;SDS011;66188;46.626;18.866;2023-02-01T17:49:16;0.00;;;0.00;;
77204;SDS011;66188;46.626;18.866;2023-02-01T17:51:42;0.05;;;0.00;;
77204;SDS011;66188;46.626;18.866;2023-02-01T17:54:09;0.08;;;0.08;;
77204;SDS011;66188;46.626;18.866;2023-02-01T17:56:37;0.00;;;0.00;;
77204;SDS011;66188;46.626;18.866;2023-02-01T17:59:02;0.10;;;0.10;;
77204;SDS011;66188;46.626;18.866;2023-02-01T18:01:28;0.20;;;0.10;;
77204;SDS011;66188;46.626;18.866;2023-02-01T18:03:53;0.08;;;0.00;;
77204;SDS011;66188;46.626;18.866;2023-02-01T18:06:23;0.00;;;0.00;;
77204;SDS011;66188;46.626;18.866;2023-02-01T18:08:54;0.00;;;0.00;;
77204;SDS011;66188;46.626;18.866;2023-02-01T18:11:21;0.00;;;0.00;;